createdAt,value
2023-12-09T00:00:04.522Z,3.50
2023-12-09T00:02:32.989Z,3.60
2023-12-09T00:05:01.194Z,3.60
2023-12-09T00:07:29.320Z,3.60
2023-12-09T00:09:57.438Z,3.48
2023-12-09T00:12:25.832Z,3.50
2023-12-09T00:14:55.072Z,3.50
2023-12-09T00:17:23.298Z,3.58
2023-12-09T00:19:51.316Z,3.60
2023-12-09T00:22:19.354Z,3.60
2023-12-09T00:24:47.554Z,3.60
2023-12-09T00:27:15.659Z,3.50
2023-12-09T00:29:43.861Z,3.50
2023-12-09T00:32:11.982Z,3.40
2023-12-09T00:34:40.158Z,3.40
2023-12-09T00:37:08.216Z,3.40
2023-12-09T00:39:36.328Z,3.40
2023-12-09T00:42:04.919Z,3.50
2023-12-09T00:44:32.972Z,3.50
2023-12-09T00:47:01.099Z,3.56
2023-12-09T00:49:29.413Z,3.64
2023-12-09T00:51:57.681Z,3.60
2023-12-09T00:54:26.667Z,3.62
2023-12-09T00:56:54.747Z,3.70
2023-12-09T00:59:22.811Z,3.70
2023-12-09T01:01:50.955Z,3.70
2023-12-09T01:04:19.322Z,3.80
2023-12-09T01:06:47.418Z,3.80
2023-12-09T01:09:15.564Z,3.80
2023-12-09T01:11:43.683Z,3.80
2023-12-09T01:14:11.829Z,3.80
2023-12-09T01:16:39.964Z,3.70
2023-12-09T01:19:08.091Z,3.74
2023-12-09T01:21:36.468Z,3.70
2023-12-09T01:24:06.058Z,3.70
2023-12-09T01:26:34.287Z,3.70
2023-12-09T01:29:04.311Z,3.70
2023-12-09T01:31:32.528Z,3.70
2023-12-09T01:34:00.863Z,3.70
2023-12-09T01:36:29.128Z,3.70
2023-12-09T01:38:57.288Z,3.70
2023-12-09T01:41:25.496Z,3.70
2023-12-09T01:43:53.486Z,3.78
2023-12-09T01:46:22.018Z,3.70
2023-12-09T01:48:50.526Z,3.80
2023-12-09T01:51:18.854Z,3.80
2023-12-09T01:53:46.971Z,3.80
2023-12-09T01:56:15.433Z,3.80
2023-12-09T01:58:43.512Z,3.74
2023-12-09T02:01:11.633Z,3.70
2023-12-09T02:03:40.728Z,3.70
2023-12-09T02:06:08.903Z,3.78
2023-12-09T02:08:37.089Z,3.80
2023-12-09T02:11:42.750Z,3.80
2023-12-09T02:14:36.348Z,3.78
2023-12-09T02:17:37.884Z,3.70
2023-12-09T02:20:07.168Z,3.70
2023-12-09T02:22:35.325Z,3.66
2023-12-09T02:25:03.405Z,3.70
2023-12-09T02:27:40.475Z,3.70
2023-12-09T02:30:20.915Z,3.66
2023-12-09T02:32:49.335Z,3.68
2023-12-09T02:35:18.082Z,3.70
2023-12-09T02:37:46.169Z,3.70
2023-12-09T02:40:15.260Z,3.68
2023-12-09T02:42:43.604Z,3.60
2023-12-09T02:45:12.445Z,3.52
2023-12-09T02:47:40.681Z,3.50
2023-12-09T02:50:08.949Z,3.50
2023-12-09T02:52:37.181Z,3.52
2023-12-09T02:55:05.730Z,3.56
2023-12-09T02:57:33.998Z,3.50
2023-12-09T03:00:02.260Z,3.40
2023-12-09T03:02:30.496Z,3.30
2023-12-09T03:04:59.358Z,3.22
2023-12-09T03:07:27.430Z,3.20
2023-12-09T03:09:55.619Z,3.20
2023-12-09T03:12:23.744Z,3.20
2023-12-09T03:14:51.844Z,3.24
2023-12-09T03:17:20.461Z,3.18
2023-12-09T03:19:48.643Z,2.94
2023-12-09T03:22:16.776Z,2.74
2023-12-09T03:24:44.979Z,2.68
2023-12-09T03:27:13.119Z,2.60
2023-12-09T03:29:41.886Z,2.50
2023-12-09T03:32:10.089Z,2.40
2023-12-09T03:34:38.278Z,2.40
2023-12-09T03:37:06.373Z,2.32
2023-12-09T03:39:34.584Z,2.40
2023-12-09T03:42:02.828Z,2.50
2023-12-09T03:44:31.499Z,2.60
2023-12-09T03:47:00.046Z,2.70
2023-12-09T03:49:29.004Z,2.78
2023-12-09T03:51:57.200Z,2.80
2023-12-09T03:54:25.887Z,2.90
2023-12-09T03:56:54.461Z,3.00
2023-12-09T03:59:22.630Z,3.18
2023-12-09T04:01:51.365Z,3.20
2023-12-09T04:04:19.579Z,3.30
2023-12-09T04:06:47.747Z,3.32
2023-12-09T04:09:15.920Z,3.40
2023-12-09T04:11:44.586Z,3.40
2023-12-09T04:14:12.652Z,3.30
2023-12-09T04:16:43.552Z,3.20
2023-12-09T04:19:11.812Z,3.30
2023-12-09T04:21:40.080Z,3.40
2023-12-09T04:24:08.995Z,3.44
2023-12-09T04:26:37.152Z,3.44
2023-12-09T04:29:07.972Z,3.46
2023-12-09T04:31:36.301Z,3.50
2023-12-09T04:34:04.443Z,3.50
2023-12-09T04:36:32.589Z,3.50
2023-12-09T04:39:00.836Z,3.50
2023-12-09T04:41:28.956Z,3.50
2023-12-09T04:43:57.011Z,3.40
2023-12-09T04:46:25.081Z,3.38
2023-12-09T04:48:53.233Z,3.30
2023-12-09T04:51:21.483Z,3.30
2023-12-09T04:53:49.728Z,3.34
2023-12-09T04:56:18.130Z,3.40
2023-12-09T04:58:46.427Z,3.50
2023-12-09T05:01:14.620Z,3.50
2023-12-09T05:03:42.822Z,3.50
2023-12-09T05:06:11.054Z,3.50
2023-12-09T05:08:43.172Z,3.60
2023-12-09T05:11:11.525Z,3.60
2023-12-09T05:13:39.537Z,3.60
2023-12-09T05:16:07.935Z,3.50
2023-12-09T05:18:36.510Z,3.60
2023-12-09T05:21:06.505Z,3.60
2023-12-09T05:23:34.848Z,3.60
2023-12-09T05:26:03.823Z,3.60
2023-12-09T05:28:31.954Z,3.60
2023-12-09T05:31:00.146Z,3.60
2023-12-09T05:33:28.481Z,3.60
2023-12-09T05:35:56.812Z,3.60
2023-12-09T05:38:25.060Z,3.60
2023-12-09T05:40:53.217Z,3.60
2023-12-09T05:43:21.439Z,3.60
2023-12-09T05:45:49.698Z,3.60
2023-12-09T05:48:18.054Z,3.60
2023-12-09T05:50:46.207Z,3.60
2023-12-09T05:53:14.478Z,3.60
2023-12-09T05:55:42.915Z,3.64
2023-12-09T05:58:11.104Z,3.66
2023-12-09T06:00:39.467Z,3.60
2023-12-09T06:03:07.689Z,3.60
2023-12-09T06:05:35.885Z,3.68
2023-12-09T06:08:04.163Z,3.64
2023-12-09T06:10:32.229Z,3.66
2023-12-09T06:13:00.413Z,3.66
2023-12-09T06:15:28.636Z,3.60
2023-12-09T06:17:56.971Z,3.60
2023-12-09T06:20:25.144Z,3.50
2023-12-09T06:22:53.219Z,3.50
2023-12-09T06:25:21.423Z,3.50
2023-12-09T06:27:49.526Z,3.50
2023-12-09T06:30:17.880Z,3.56
2023-12-09T06:32:46.231Z,3.52
2023-12-09T06:35:14.465Z,3.58
2023-12-09T06:37:42.664Z,3.60
2023-12-09T06:40:11.438Z,3.68
2023-12-09T06:42:39.562Z,3.60
2023-12-09T06:45:08.296Z,3.50
2023-12-09T06:47:36.699Z,3.60
2023-12-09T06:50:05.369Z,3.60
2023-12-09T06:52:33.543Z,3.60
2023-12-09T06:55:02.259Z,3.60
2023-12-09T06:57:30.406Z,3.70
2023-12-09T06:59:58.579Z,3.70
2023-12-09T07:02:33.918Z,3.70
2023-12-09T07:05:08.242Z,3.72
2023-12-09T07:07:36.498Z,3.70
2023-12-09T07:10:06.807Z,3.70
2023-12-09T07:12:34.974Z,3.70
2023-12-09T07:15:03.442Z,3.70
2023-12-09T07:17:31.559Z,3.70
2023-12-09T07:20:00.739Z,3.78
2023-12-09T07:22:29.065Z,3.88
2023-12-09T07:24:57.919Z,3.70
2023-12-09T07:27:26.134Z,3.76
2023-12-09T07:29:54.268Z,3.70
2023-12-09T07:32:22.459Z,3.78
2023-12-09T07:34:51.285Z,3.84
2023-12-09T07:37:19.992Z,3.90
2023-12-09T07:39:48.056Z,3.90
2023-12-09T07:42:16.140Z,3.90
2023-12-09T07:44:44.512Z,3.90
2023-12-09T07:47:12.582Z,3.90
2023-12-09T07:49:41.041Z,3.88
2023-12-09T07:52:09.136Z,3.92
2023-12-09T07:54:37.269Z,3.70
2023-12-09T07:57:05.634Z,3.60
2023-12-09T07:59:33.739Z,3.70
2023-12-09T08:02:01.818Z,3.80
2023-12-09T08:04:30.085Z,3.82
2023-12-09T08:06:58.210Z,3.86
2023-12-09T08:09:26.406Z,4.00
2023-12-09T08:11:54.517Z,4.00
2023-12-09T08:14:22.815Z,4.00
2023-12-09T08:16:50.944Z,4.10
2023-12-09T08:19:19.237Z,4.10
2023-12-09T08:21:47.461Z,4.10
2023-12-09T08:24:15.597Z,4.00
2023-12-09T08:26:43.733Z,4.00
2023-12-09T08:29:15.321Z,4.18
2023-12-09T08:31:47.782Z,4.20
2023-12-09T08:34:16.833Z,4.10
2023-12-09T08:36:45.436Z,4.26
2023-12-09T08:39:15.374Z,4.18
2023-12-09T08:41:43.512Z,4.20
2023-12-09T08:44:11.652Z,4.20
2023-12-09T08:46:39.734Z,4.28
2023-12-09T08:49:08.266Z,4.30
2023-12-09T08:51:54.524Z,4.32
2023-12-09T08:54:22.684Z,4.32
2023-12-09T08:56:50.805Z,4.40
2023-12-09T08:59:19.008Z,4.50
2023-12-09T09:01:47.148Z,4.50
2023-12-09T09:04:15.363Z,4.48
2023-12-09T09:06:43.691Z,4.46
2023-12-09T09:09:12.884Z,4.38
2023-12-09T09:11:41.053Z,4.22
2023-12-09T09:14:09.504Z,4.40
2023-12-09T09:16:37.602Z,4.50
2023-12-09T09:19:06.409Z,4.60
2023-12-09T09:21:34.595Z,4.70
2023-12-09T09:24:03.666Z,4.70
2023-12-09T09:26:31.816Z,4.74
2023-12-09T09:29:00.259Z,4.60
2023-12-09T09:31:28.322Z,4.50
2023-12-09T09:33:56.614Z,4.52
2023-12-09T09:36:24.993Z,4.60
2023-12-09T09:38:53.582Z,4.60
2023-12-09T09:41:51.734Z,4.20
2023-12-09T09:44:20.591Z,4.32
2023-12-09T09:46:48.683Z,4.40
2023-12-09T09:49:16.816Z,4.50
2023-12-09T09:51:46.116Z,4.60
2023-12-09T09:54:28.202Z,4.60
2023-12-09T09:56:59.328Z,4.80
2023-12-09T09:59:27.626Z,4.76
2023-12-09T10:01:55.707Z,4.82
2023-12-09T10:04:23.820Z,4.90
2023-12-09T10:06:52.049Z,4.86
2023-12-09T10:09:20.358Z,4.80
2023-12-09T10:11:48.483Z,4.90
2023-12-09T10:14:17.291Z,4.68
2023-12-09T10:16:46.554Z,4.50
2023-12-09T10:19:15.915Z,4.70
2023-12-09T10:21:44.322Z,4.90
2023-12-09T10:24:12.503Z,5.20
2023-12-09T10:26:40.862Z,5.40
2023-12-09T10:29:08.945Z,5.50
2023-12-09T10:31:37.163Z,5.64
2023-12-09T10:34:06.031Z,5.70
2023-12-09T10:36:34.380Z,5.80
2023-12-09T10:39:02.628Z,5.80
2023-12-09T10:41:30.794Z,5.80
2023-12-09T10:43:59.911Z,5.62
2023-12-09T10:46:27.978Z,5.40
2023-12-09T10:48:56.209Z,5.00
2023-12-09T10:51:24.557Z,4.90
2023-12-09T10:53:52.648Z,4.80
2023-12-09T10:56:20.665Z,4.70
2023-12-09T10:58:48.653Z,4.80
2023-12-09T11:01:17.017Z,4.80
2023-12-09T11:03:45.109Z,4.70
2023-12-09T11:06:13.402Z,4.60
2023-12-09T11:08:41.596Z,4.64
2023-12-09T11:11:10.078Z,4.70
2023-12-09T11:13:38.850Z,4.62
2023-12-09T11:16:14.829Z,4.80
2023-12-09T11:18:56.665Z,4.80
2023-12-09T11:21:30.015Z,4.80
2023-12-09T11:23:58.808Z,4.70
2023-12-09T11:26:34.427Z,4.60
2023-12-09T11:29:06.041Z,4.40
2023-12-09T11:31:41.244Z,4.50
2023-12-09T11:34:13.777Z,4.32
2023-12-09T11:36:42.432Z,4.40
2023-12-09T11:39:15.655Z,4.50
2023-12-09T11:41:43.872Z,4.36
2023-12-09T11:44:12.192Z,4.50
2023-12-09T11:46:40.398Z,4.40
2023-12-09T11:49:08.718Z,4.48
2023-12-09T11:51:38.322Z,4.50
2023-12-09T11:54:10.153Z,4.48
2023-12-09T11:56:39.403Z,4.50
2023-12-09T11:59:07.927Z,4.16
2023-12-09T12:01:39.358Z,3.84
2023-12-09T12:04:07.480Z,4.06
2023-12-09T12:06:36.580Z,4.06
2023-12-09T12:09:04.928Z,3.90
2023-12-09T12:11:33.641Z,3.60
2023-12-09T12:14:02.000Z,3.50
2023-12-09T12:16:30.122Z,3.50
2023-12-09T12:18:58.357Z,3.46
2023-12-09T12:21:26.668Z,3.30
2023-12-09T12:23:54.939Z,3.26
2023-12-09T12:26:23.040Z,3.20
2023-12-09T12:28:52.801Z,3.20
2023-12-09T12:31:22.108Z,3.22
2023-12-09T12:33:50.394Z,3.40
2023-12-09T12:36:18.668Z,3.54
2023-12-09T12:38:48.175Z,3.72
2023-12-09T12:41:16.598Z,3.92
2023-12-09T12:43:44.708Z,4.08
2023-12-09T12:46:13.147Z,4.20
2023-12-09T12:48:41.424Z,4.30
2023-12-09T12:51:09.742Z,4.40
2023-12-09T12:53:37.926Z,4.30
2023-12-09T12:56:06.681Z,4.34
2023-12-09T12:58:34.800Z,4.40
2023-12-09T13:01:03.006Z,4.40
2023-12-09T13:03:31.420Z,4.28
2023-12-09T13:06:00.082Z,3.84
2023-12-09T13:08:28.199Z,3.76
2023-12-09T13:10:57.821Z,3.60
2023-12-09T13:13:27.994Z,3.70
2023-12-09T13:15:56.126Z,3.60
2023-12-09T13:18:24.840Z,3.70
2023-12-09T13:20:53.536Z,3.60
2023-12-09T13:23:21.808Z,3.76
2023-12-09T13:25:49.973Z,3.96
2023-12-09T13:28:18.312Z,4.08
2023-12-09T13:30:46.633Z,4.08
2023-12-09T13:33:14.838Z,4.02
2023-12-09T13:35:43.022Z,4.08
2023-12-09T13:38:11.100Z,4.04
2023-12-09T13:40:39.346Z,3.80
2023-12-09T13:43:07.458Z,3.66
2023-12-09T13:45:37.209Z,3.60
2023-12-09T13:48:06.076Z,3.70
2023-12-09T13:50:35.138Z,3.90
2023-12-09T13:53:04.155Z,3.90
2023-12-09T13:55:32.236Z,4.00
2023-12-09T13:58:00.426Z,3.80
2023-12-09T14:00:28.560Z,3.60
2023-12-09T14:02:57.373Z,3.50
2023-12-09T14:05:25.637Z,3.30
2023-12-09T14:07:53.823Z,3.20
2023-12-09T14:10:21.901Z,3.16
2023-12-09T14:12:50.153Z,3.10
2023-12-09T14:15:18.500Z,3.08
2023-12-09T14:17:47.105Z,3.08
2023-12-09T14:20:17.091Z,3.10
2023-12-09T14:22:47.301Z,3.20
2023-12-09T14:25:15.602Z,3.30
2023-12-09T14:27:43.690Z,3.38
2023-12-09T14:30:12.758Z,3.30
2023-12-09T14:32:45.575Z,3.40
2023-12-09T14:35:17.445Z,3.40
2023-12-09T14:37:49.410Z,3.50
2023-12-09T14:40:18.194Z,3.50
2023-12-09T14:42:46.808Z,3.56
2023-12-09T14:45:15.323Z,3.50
2023-12-09T14:47:53.696Z,3.50
2023-12-09T14:50:27.483Z,3.60
2023-12-09T14:52:55.810Z,3.50
2023-12-09T14:55:24.064Z,3.54
2023-12-09T14:57:52.747Z,3.60
2023-12-09T15:00:21.175Z,3.50
2023-12-09T15:02:49.376Z,3.50
2023-12-09T15:05:17.712Z,3.58
2023-12-09T15:07:46.822Z,3.60
2023-12-09T15:10:15.015Z,3.50
2023-12-09T15:12:43.701Z,3.60
2023-12-09T15:15:12.623Z,3.50
2023-12-09T15:17:41.019Z,3.50
2023-12-09T15:20:12.593Z,3.60
2023-12-09T15:22:40.867Z,3.60
2023-12-09T15:25:09.731Z,3.50
2023-12-09T15:27:38.268Z,3.50
2023-12-09T15:30:08.194Z,3.50
2023-12-09T15:32:36.883Z,3.50
2023-12-09T15:35:05.595Z,3.50
2023-12-09T15:37:33.930Z,3.54
2023-12-09T15:40:02.026Z,3.60
2023-12-09T15:42:30.458Z,3.60
2023-12-09T15:44:58.714Z,3.50
2023-12-09T15:47:26.929Z,3.42
2023-12-09T15:49:55.288Z,3.40
2023-12-09T15:52:23.387Z,3.40
2023-12-09T15:54:51.579Z,3.56
2023-12-09T15:57:19.943Z,3.48
2023-12-09T15:59:48.216Z,3.10
2023-12-09T16:02:16.388Z,2.80
2023-12-09T16:04:44.631Z,2.72
2023-12-09T16:07:12.973Z,2.56
2023-12-09T16:09:47.899Z,2.58
2023-12-09T16:12:21.406Z,2.54
2023-12-09T16:14:53.814Z,2.50
2023-12-09T16:17:21.985Z,2.46
2023-12-09T16:19:50.410Z,2.40
2023-12-09T16:22:21.453Z,2.30
2023-12-09T16:24:49.791Z,2.30
2023-12-09T16:27:18.242Z,2.26
2023-12-09T16:29:46.508Z,2.38
2023-12-09T16:32:14.715Z,2.60
2023-12-09T16:34:43.101Z,2.80
2023-12-09T16:37:11.400Z,2.80
2023-12-09T16:39:39.786Z,2.70
2023-12-09T16:42:07.929Z,2.70
2023-12-09T16:44:36.092Z,2.80
2023-12-09T16:47:04.342Z,2.80
2023-12-09T16:49:32.647Z,2.82
2023-12-09T16:52:00.823Z,2.90
2023-12-09T16:54:29.114Z,2.94
2023-12-09T16:56:57.824Z,3.00
2023-12-09T16:59:25.960Z,3.10
2023-12-09T17:01:54.040Z,3.20
2023-12-09T17:04:22.282Z,3.10
2023-12-09T17:06:54.216Z,3.10
2023-12-09T17:09:22.714Z,3.26
2023-12-09T17:11:52.888Z,3.10
2023-12-09T17:14:22.279Z,3.00
2023-12-09T17:16:50.925Z,2.98
2023-12-09T17:19:19.360Z,2.82
2023-12-09T17:21:47.538Z,2.90
2023-12-09T17:24:15.818Z,2.96
2023-12-09T17:26:43.958Z,3.00
2023-12-09T17:29:12.081Z,2.98
2023-12-09T17:31:43.537Z,3.00
2023-12-09T17:34:13.374Z,2.96
2023-12-09T17:36:42.309Z,2.90
2023-12-09T17:39:11.474Z,2.88
2023-12-09T17:41:39.975Z,2.98
2023-12-09T17:44:08.103Z,2.98
2023-12-09T17:46:36.213Z,2.90
2023-12-09T17:49:04.373Z,2.90
2023-12-09T17:51:32.671Z,2.90
2023-12-09T17:54:03.199Z,2.90
2023-12-09T17:56:31.495Z,2.94
2023-12-09T17:58:59.930Z,3.00
2023-12-09T18:01:29.220Z,2.78
2023-12-09T18:04:01.036Z,2.78
2023-12-09T18:06:29.571Z,2.80
2023-12-09T18:08:57.816Z,2.80
2023-12-09T18:11:26.056Z,2.90
2023-12-09T18:13:54.452Z,2.90
2023-12-09T18:16:23.235Z,2.94
2023-12-09T18:18:51.514Z,3.00
2023-12-09T18:21:19.745Z,3.10
2023-12-09T18:23:48.033Z,3.10
2023-12-09T18:26:16.763Z,2.90
2023-12-09T18:28:45.384Z,2.80
2023-12-09T18:31:13.546Z,2.72
2023-12-09T18:33:42.480Z,2.70
2023-12-09T18:36:11.034Z,2.70
2023-12-09T18:38:39.722Z,2.80
2023-12-09T18:41:08.158Z,2.80
2023-12-09T18:43:36.863Z,2.90
2023-12-09T18:46:05.394Z,2.90
2023-12-09T18:48:33.554Z,2.90
2023-12-09T18:51:03.005Z,2.94
2023-12-09T18:53:31.368Z,3.06
2023-12-09T18:56:02.353Z,3.00
2023-12-09T18:58:30.423Z,2.90
2023-12-09T19:01:05.120Z,2.80
2023-12-09T19:03:41.205Z,2.84
2023-12-09T19:06:10.416Z,2.88
2023-12-09T19:08:39.080Z,2.80
2023-12-09T19:11:07.602Z,2.76
2023-12-09T19:13:35.866Z,2.72
2023-12-09T19:16:04.173Z,2.86
2023-12-09T19:18:32.553Z,2.88
2023-12-09T19:21:00.828Z,2.72
2023-12-09T19:23:30.113Z,2.80
2023-12-09T19:25:58.309Z,2.80
2023-12-09T19:28:27.028Z,2.82
2023-12-09T19:30:55.318Z,2.78
2023-12-09T19:33:23.708Z,2.70
2023-12-09T19:35:54.626Z,2.74
2023-12-09T19:38:22.755Z,2.70
2023-12-09T19:40:50.880Z,2.60
2023-12-09T19:43:22.072Z,2.66
2023-12-09T19:45:50.325Z,2.62
2023-12-09T19:48:18.512Z,2.70
2023-12-09T19:50:46.724Z,2.60
2023-12-09T19:53:14.856Z,2.60
2023-12-09T19:55:43.416Z,2.42
2023-12-09T19:58:11.646Z,2.50
2023-12-09T20:00:41.018Z,2.52
2023-12-09T20:03:10.293Z,2.40
2023-12-09T20:05:38.702Z,2.24
2023-12-09T20:08:07.424Z,2.00
2023-12-09T20:10:35.561Z,2.10
2023-12-09T20:13:03.679Z,2.20
2023-12-09T20:15:31.839Z,2.20
2023-12-09T20:18:01.552Z,2.20
2023-12-09T20:20:30.464Z,2.20
2023-12-09T20:22:58.700Z,2.18
2023-12-09T20:25:26.787Z,2.30
2023-12-09T20:27:55.042Z,2.20
2023-12-09T20:30:23.224Z,2.10
2023-12-09T20:32:52.081Z,2.14
2023-12-09T20:35:20.309Z,2.10
2023-12-09T20:37:48.433Z,2.10
2023-12-09T20:40:16.647Z,2.10
2023-12-09T20:42:44.923Z,2.08
2023-12-09T20:45:13.286Z,2.10
2023-12-09T20:47:42.381Z,2.20
2023-12-09T20:50:10.658Z,2.20
2023-12-09T20:52:39.240Z,2.16
2023-12-09T20:55:08.045Z,2.10
2023-12-09T20:57:36.269Z,2.20
2023-12-09T21:00:06.696Z,2.20
2023-12-09T21:02:34.919Z,2.30
2023-12-09T21:05:04.667Z,2.30
2023-12-09T21:07:33.896Z,2.30
2023-12-09T21:10:02.284Z,2.14
2023-12-09T21:12:30.666Z,2.20
2023-12-09T21:14:59.639Z,2.14
2023-12-09T21:17:27.847Z,2.10
2023-12-09T21:19:56.068Z,2.10
2023-12-09T21:22:25.414Z,2.08
2023-12-09T21:24:53.987Z,2.14
2023-12-09T21:27:22.174Z,2.10
2023-12-09T21:29:50.185Z,1.90
2023-12-09T21:32:19.052Z,1.90
2023-12-09T21:34:47.397Z,1.98
2023-12-09T21:37:15.502Z,2.00
2023-12-09T21:39:43.753Z,2.00
2023-12-09T21:42:11.928Z,1.98
2023-12-09T21:44:43.268Z,2.10
2023-12-09T21:47:11.662Z,2.10
2023-12-09T21:49:43.025Z,2.10
2023-12-09T21:52:11.388Z,1.86
2023-12-09T21:54:39.553Z,1.80
2023-12-09T21:57:07.856Z,1.84
2023-12-09T21:59:36.423Z,2.00
2023-12-09T22:02:04.857Z,2.08
2023-12-09T22:04:32.939Z,2.12
2023-12-09T22:07:01.045Z,2.20
2023-12-09T22:09:29.136Z,2.30
2023-12-09T22:11:57.296Z,2.16
2023-12-09T22:14:25.382Z,2.20
2023-12-09T22:16:54.344Z,2.00
2023-12-09T22:19:22.638Z,2.08
2023-12-09T22:21:50.911Z,2.00
2023-12-09T22:24:19.247Z,2.02
2023-12-09T22:26:47.412Z,2.08
2023-12-09T22:29:15.553Z,2.00
2023-12-09T22:31:44.986Z,2.00
2023-12-09T22:34:13.287Z,2.00
2023-12-09T22:36:41.478Z,2.00
2023-12-09T22:39:13.165Z,2.08
2023-12-09T22:41:41.572Z,2.06
2023-12-09T22:44:09.776Z,2.00
2023-12-09T22:46:37.920Z,2.10
2023-12-09T22:49:06.168Z,2.10
2023-12-09T22:51:34.462Z,1.98
2023-12-09T22:54:03.031Z,1.88
2023-12-09T22:56:31.229Z,1.86
2023-12-09T22:58:59.507Z,1.84
2023-12-09T23:01:32.556Z,1.80
2023-12-09T23:04:01.813Z,1.76
2023-12-09T23:06:30.545Z,1.80
2023-12-09T23:08:59.188Z,1.90
2023-12-09T23:11:27.439Z,1.80
2023-12-09T23:13:55.858Z,1.60
2023-12-09T23:16:24.122Z,1.70
2023-12-09T23:18:52.659Z,1.80
2023-12-09T23:21:21.013Z,1.98
2023-12-09T23:23:49.526Z,2.00
2023-12-09T23:26:17.789Z,2.00
2023-12-09T23:28:45.950Z,1.92
2023-12-09T23:31:16.483Z,1.90
2023-12-09T23:33:48.145Z,1.90
2023-12-09T23:36:16.880Z,1.90
2023-12-09T23:38:45.169Z,1.90
2023-12-09T23:41:16.827Z,1.96
2023-12-09T23:43:44.949Z,1.72
2023-12-09T23:46:19.416Z,1.70
2023-12-09T23:48:47.629Z,1.88
2023-12-09T23:51:16.190Z,1.80
2023-12-09T23:53:44.668Z,1.80
2023-12-09T23:56:13.358Z,1.90
2023-12-09T23:58:43.226Z,2.00
